Airfield :
LOGIN :

Register | Disclaimer

   EN    FR    IT 

 










Legend :    VFR   Marginal VFR   IFR   Intensive IFR   Very Intensive IFR
Visi :
Ceiling :
>= 8 km
>= 3000ft
5 to 8 km
1000 to 3000 ft
1500m to 5 km
500 to 1000 ft
800 to 1500m
200 to 500 ft
< 800m
< 200 ft
Symbols :   Thunderstorms  Fog  Heavy snow  Heavy precipitations  Wind > 20 kt
SIGMETs :     Misc.  Thunderstorms  Icing  Turbulence  Mountain Waves  Volcanic Ashes







- Airport Elevation : 203 ft
- IATA code : XMJ
- Download approach charts


LFBM - Mont-De-Marsan

CURRENT METAR :
  • 280100Z AUTO 10005KT CAVOK 21/14 Q1013

EXPIRED METARs :
  • 280030Z AUTO 09006KT CAVOK 21/13 Q1013
  • 280000Z AUTO 09008KT 070V130 CAVOK 22/14 Q1013
  • 272330Z AUTO 10008KT CAVOK 22/14 Q1014
  • 272300Z AUTO 10007KT 070V130 CAVOK 22/14 Q1014
  • 272230Z AUTO 10008KT 070V130 CAVOK 23/15 Q1014

TAF TAF LFBM
Valid from the 27 at 21:00 until the 28 at 21:00 UTC


272000Z 2721/2821 10007KT CAVOK
TEMPO 2721/2803 10010G20KT
No reported NOTAMs for that airfield.



MET'MAP, your aeronautical weather chart ! - Copyright ORBIFLY December 2007 - Disclaimer

ORBIFLY MET'MAP TEAM :

Programming & Development : Alexandra Zaïnal
Concept & Development : Baudouin d'Aumeries
Co-Development & Prog : Marc-Olivier Méhu
Technical & hardware support : Manuel Goepfert

Contact : metmap@orbifly.com




SOURCES & CREDITS :

   NOAA